sensor_id;sensor_type;location;lat;lon;timestamp;temperature;humidity
76855;DHT22;66343;44.588;33.450;2023-07-24T00:00:16;24.40;60.63
76855;DHT22;66343;44.588;33.450;2023-07-24T00:02:51;24.27;60.91
76855;DHT22;66343;44.588;33.450;2023-07-24T00:05:25;24.14;61.47
76855;DHT22;66343;44.588;33.450;2023-07-24T00:07:57;24.06;61.73
76855;DHT22;66343;44.588;33.450;2023-07-24T00:10:32;23.95;61.97
76855;DHT22;66343;44.588;33.450;2023-07-24T00:13:04;23.92;62.08
76855;DHT22;66343;44.588;33.450;2023-07-24T00:15:38;23.86;62.21
76855;DHT22;66343;44.588;33.450;2023-07-24T00:18:10;23.81;62.33
76855;DHT22;66343;44.588;33.450;2023-07-24T00:20:44;23.75;62.47
76855;DHT22;66343;44.588;33.450;2023-07-24T00:23:18;23.74;62.66
76855;DHT22;66343;44.588;33.450;2023-07-24T00:25:50;23.69;62.89
76855;DHT22;66343;44.588;33.450;2023-07-24T00:28:26;23.68;62.92
76855;DHT22;66343;44.588;33.450;2023-07-24T00:30:55;23.64;63.06
76855;DHT22;66343;44.588;33.450;2023-07-24T00:33:30;23.61;62.98
76855;DHT22;66343;44.588;33.450;2023-07-24T00:35:59;23.57;62.95
76855;DHT22;66343;44.588;33.450;2023-07-24T00:38:32;23.57;63.09
76855;DHT22;66343;44.588;33.450;2023-07-24T00:41:09;23.53;63.40
76855;DHT22;66343;44.588;33.450;2023-07-24T00:43:44;23.52;63.47
76855;DHT22;66343;44.588;33.450;2023-07-24T00:46:16;23.50;63.47
76855;DHT22;66343;44.588;33.450;2023-07-24T00:48:49;23.46;63.55
76855;DHT22;66343;44.588;33.450;2023-07-24T00:51:20;23.45;63.69
76855;DHT22;66343;44.588;33.450;2023-07-24T00:53:55;23.49;63.15
76855;DHT22;66343;44.588;33.450;2023-07-24T00:56:33;23.40;63.16
76855;DHT22;66343;44.588;33.450;2023-07-24T00:59:08;23.38;63.29
76855;DHT22;66343;44.588;33.450;2023-07-24T01:01:39;23.39;63.11
76855;DHT22;66343;44.588;33.450;2023-07-24T01:04:11;23.35;63.34
76855;DHT22;66343;44.588;33.450;2023-07-24T01:06:44;23.37;63.47
76855;DHT22;66343;44.588;33.450;2023-07-24T01:09:16;23.35;63.57
76855;DHT22;66343;44.588;33.450;2023-07-24T01:11:49;23.36;63.57
76855;DHT22;66343;44.588;33.450;2023-07-24T01:14:23;23.34;63.45
76855;DHT22;66343;44.588;33.450;2023-07-24T01:16:59;23.35;63.07
76855;DHT22;66343;44.588;33.450;2023-07-24T01:19:37;23.32;62.75
76855;DHT22;66343;44.588;33.450;2023-07-24T01:25:18;23.37;62.85
76855;DHT22;66343;44.588;33.450;2023-07-24T01:27:57;23.45;62.20
76855;DHT22;66343;44.588;33.450;2023-07-24T01:30:31;23.52;61.94
76855;DHT22;66343;44.588;33.450;2023-07-24T01:33:02;23.57;61.05
76855;DHT22;66343;44.588;33.450;2023-07-24T01:35:38;23.60;61.61
76855;DHT22;66343;44.588;33.450;2023-07-24T01:38:15;23.56;59.82
76855;DHT22;66343;44.588;33.450;2023-07-24T01:40:47;23.47;60.15
76855;DHT22;66343;44.588;33.450;2023-07-24T01:43:22;23.41;60.07
76855;DHT22;66343;44.588;33.450;2023-07-24T01:45:59;23.29;60.17
76855;DHT22;66343;44.588;33.450;2023-07-24T01:48:30;23.20;60.76
76855;DHT22;66343;44.588;33.450;2023-07-24T01:51:03;23.17;60.66
76855;DHT22;66343;44.588;33.450;2023-07-24T01:53:37;23.09;61.14
76855;DHT22;66343;44.588;33.450;2023-07-24T01:56:09;23.12;61.00
76855;DHT22;66343;44.588;33.450;2023-07-24T01:58:44;23.11;60.91
76855;DHT22;66343;44.588;33.450;2023-07-24T02:01:16;23.13;60.92
76855;DHT22;66343;44.588;33.450;2023-07-24T02:03:48;23.10;61.08
76855;DHT22;66343;44.588;33.450;2023-07-24T02:06:20;23.10;61.33
76855;DHT22;66343;44.588;33.450;2023-07-24T02:08:49;23.12;61.23
76855;DHT22;66343;44.588;33.450;2023-07-24T02:11:28;23.14;60.99
76855;DHT22;66343;44.588;33.450;2023-07-24T02:13:57;23.14;60.96
76855;DHT22;66343;44.588;33.450;2023-07-24T02:16:30;23.12;60.83
76855;DHT22;66343;44.588;33.450;2023-07-24T02:19:05;23.30;60.52
76855;DHT22;66343;44.588;33.450;2023-07-24T02:21:38;23.24;60.67
76855;DHT22;66343;44.588;33.450;2023-07-24T02:24:09;23.24;60.78
76855;DHT22;66343;44.588;33.450;2023-07-24T02:26:42;23.21;61.16
76855;DHT22;66343;44.588;33.450;2023-07-24T02:29:16;23.17;61.42
76855;DHT22;66343;44.588;33.450;2023-07-24T02:31:48;23.17;61.80
76855;DHT22;66343;44.588;33.450;2023-07-24T02:34:24;23.16;62.12
76855;DHT22;66343;44.588;33.450;2023-07-24T02:37:01;23.15;62.28
76855;DHT22;66343;44.588;33.450;2023-07-24T02:39:30;23.13;62.66
76855;DHT22;66343;44.588;33.450;2023-07-24T02:42:08;23.15;62.98
76855;DHT22;66343;44.588;33.450;2023-07-24T02:44:45;23.12;63.52
76855;DHT22;66343;44.588;33.450;2023-07-24T02:47:19;23.09;63.75
76855;DHT22;66343;44.588;33.450;2023-07-24T02:49:53;23.07;64.01
76855;DHT22;66343;44.588;33.450;2023-07-24T02:52:25;23.06;64.15
76855;DHT22;66343;44.588;33.450;2023-07-24T02:54:57;23.06;64.25
76855;DHT22;66343;44.588;33.450;2023-07-24T02:57:32;23.03;64.30
76855;DHT22;66343;44.588;33.450;2023-07-24T03:00:05;23.02;64.33
76855;DHT22;66343;44.588;33.450;2023-07-24T03:02:34;22.96;64.59
76855;DHT22;66343;44.588;33.450;2023-07-24T03:05:08;22.99;64.47
76855;DHT22;66343;44.588;33.450;2023-07-24T03:07:40;22.98;63.63
76855;DHT22;66343;44.588;33.450;2023-07-24T03:10:12;22.97;63.20
76855;DHT22;66343;44.588;33.450;2023-07-24T03:12:42;22.95;63.00
76855;DHT22;66343;44.588;33.450;2023-07-24T03:15:14;22.98;61.59
76855;DHT22;66343;44.588;33.450;2023-07-24T03:17:46;23.01;61.97
76855;DHT22;66343;44.588;33.450;2023-07-24T03:20:20;23.00;60.76
76855;DHT22;66343;44.588;33.450;2023-07-24T03:22:52;22.99;60.02
76855;DHT22;66343;44.588;33.450;2023-07-24T03:25:26;23.00;61.04
76855;DHT22;66343;44.588;33.450;2023-07-24T03:28:01;23.03;60.48
76855;DHT22;66343;44.588;33.450;2023-07-24T03:30:34;23.03;60.15
76855;DHT22;66343;44.588;33.450;2023-07-24T03:33:04;23.08;60.15
76855;DHT22;66343;44.588;33.450;2023-07-24T03:35:41;23.07;59.64
76855;DHT22;66343;44.588;33.450;2023-07-24T03:38:13;23.08;59.42
76855;DHT22;66343;44.588;33.450;2023-07-24T03:40:45;23.09;59.77
76855;DHT22;66343;44.588;33.450;2023-07-24T03:43:19;23.10;58.61
76855;DHT22;66343;44.588;33.450;2023-07-24T03:45:51;23.11;59.36
76855;DHT22;66343;44.588;33.450;2023-07-24T03:48:20;23.16;58.78
76855;DHT22;66343;44.588;33.450;2023-07-24T03:51:09;23.18;59.34
76855;DHT22;66343;44.588;33.450;2023-07-24T03:53:42;23.24;58.87
76855;DHT22;66343;44.588;33.450;2023-07-24T03:56:20;23.27;58.91
76855;DHT22;66343;44.588;33.450;2023-07-24T03:58:50;23.27;58.76
76855;DHT22;66343;44.588;33.450;2023-07-24T04:01:21;23.29;58.64
76855;DHT22;66343;44.588;33.450;2023-07-24T04:03:54;23.28;58.04
76855;DHT22;66343;44.588;33.450;2023-07-24T04:06:23;23.29;58.22
76855;DHT22;66343;44.588;33.450;2023-07-24T04:08:55;23.32;57.98
76855;DHT22;66343;44.588;33.450;2023-07-24T04:11:25;23.32;57.68
76855;DHT22;66343;44.588;33.450;2023-07-24T04:13:55;23.35;57.62
76855;DHT22;66343;44.588;33.450;2023-07-24T04:16:24;23.37;57.10
76855;DHT22;66343;44.588;33.450;2023-07-24T04:18:56;23.41;57.81
76855;DHT22;66343;44.588;33.450;2023-07-24T04:21:31;23.43;57.06
76855;DHT22;66343;44.588;33.450;2023-07-24T04:24:03;23.47;57.32
76855;DHT22;66343;44.588;33.450;2023-07-24T04:26:35;23.49;57.15
76855;DHT22;66343;44.588;33.450;2023-07-24T04:29:06;23.52;57.10
76855;DHT22;66343;44.588;33.450;2023-07-24T04:31:38;23.58;57.12
76855;DHT22;66343;44.588;33.450;2023-07-24T04:34:12;23.64;56.82
76855;DHT22;66343;44.588;33.450;2023-07-24T04:36:41;23.65;56.32
76855;DHT22;66343;44.588;33.450;2023-07-24T04:39:16;23.72;56.22
76855;DHT22;66343;44.588;33.450;2023-07-24T04:41:53;23.77;55.97
76855;DHT22;66343;44.588;33.450;2023-07-24T04:44:25;23.80;55.88
76855;DHT22;66343;44.588;33.450;2023-07-24T04:46:56;23.82;55.52
76855;DHT22;66343;44.588;33.450;2023-07-24T04:49:31;23.89;55.74
76855;DHT22;66343;44.588;33.450;2023-07-24T04:52:03;23.95;55.41
76855;DHT22;66343;44.588;33.450;2023-07-24T04:54:35;23.94;55.13
76855;DHT22;66343;44.588;33.450;2023-07-24T04:57:06;23.97;55.13
76855;DHT22;66343;44.588;33.450;2023-07-24T04:59:36;23.98;53.78
76855;DHT22;66343;44.588;33.450;2023-07-24T05:02:05;24.03;54.17
76855;DHT22;66343;44.588;33.450;2023-07-24T05:04:34;24.05;54.33
76855;DHT22;66343;44.588;33.450;2023-07-24T05:07:09;24.08;53.90
76855;DHT22;66343;44.588;33.450;2023-07-24T05:09:40;24.10;52.99
76855;DHT22;66343;44.588;33.450;2023-07-24T05:12:12;24.14;53.17
76855;DHT22;66343;44.588;33.450;2023-07-24T05:14:45;24.16;52.64
76855;DHT22;66343;44.588;33.450;2023-07-24T05:17:17;24.26;53.28
76855;DHT22;66343;44.588;33.450;2023-07-24T05:19:49;24.30;52.28
76855;DHT22;66343;44.588;33.450;2023-07-24T05:22:23;24.32;52.44
76855;DHT22;66343;44.588;33.450;2023-07-24T05:24:52;24.34;52.68
76855;DHT22;66343;44.588;33.450;2023-07-24T05:27:24;24.38;51.89
76855;DHT22;66343;44.588;33.450;2023-07-24T05:30:00;24.36;51.71
76855;DHT22;66343;44.588;33.450;2023-07-24T05:32:32;24.40;50.82
76855;DHT22;66343;44.588;33.450;2023-07-24T05:35:02;24.41;51.11
76855;DHT22;66343;44.588;33.450;2023-07-24T05:37:35;24.44;50.84
76855;DHT22;66343;44.588;33.450;2023-07-24T05:40:10;24.48;51.30
76855;DHT22;66343;44.588;33.450;2023-07-24T05:42:39;24.51;51.00
76855;DHT22;66343;44.588;33.450;2023-07-24T05:45:12;24.51;50.76
76855;DHT22;66343;44.588;33.450;2023-07-24T05:47:48;24.47;50.42
76855;DHT22;66343;44.588;33.450;2023-07-24T05:50:18;24.50;50.79
76855;DHT22;66343;44.588;33.450;2023-07-24T05:52:50;24.57;50.84
76855;DHT22;66343;44.588;33.450;2023-07-24T05:55:25;24.57;50.61
76855;DHT22;66343;44.588;33.450;2023-07-24T05:57:55;24.59;50.69
76855;DHT22;66343;44.588;33.450;2023-07-24T06:00:35;24.59;50.43
76855;DHT22;66343;44.588;33.450;2023-07-24T06:03:11;24.63;50.82
76855;DHT22;66343;44.588;33.450;2023-07-24T06:05:42;24.68;50.53
76855;DHT22;66343;44.588;33.450;2023-07-24T06:08:12;24.68;50.34
76855;DHT22;66343;44.588;33.450;2023-07-24T06:10:44;24.69;50.62
76855;DHT22;66343;44.588;33.450;2023-07-24T06:13:17;24.72;50.74
76855;DHT22;66343;44.588;33.450;2023-07-24T06:15:51;24.77;50.75
76855;DHT22;66343;44.588;33.450;2023-07-24T06:18:23;24.73;50.37
76855;DHT22;66343;44.588;33.450;2023-07-24T06:20:57;24.77;51.15
76855;DHT22;66343;44.588;33.450;2023-07-24T06:23:32;24.79;50.79
76855;DHT22;66343;44.588;33.450;2023-07-24T06:26:05;24.82;50.40
76855;DHT22;66343;44.588;33.450;2023-07-24T06:28:34;24.82;50.79
76855;DHT22;66343;44.588;33.450;2023-07-24T06:31:03;24.79;51.10
76855;DHT22;66343;44.588;33.450;2023-07-24T06:33:33;24.84;51.67
76855;DHT22;66343;44.588;33.450;2023-07-24T06:36:09;24.85;51.82
76855;DHT22;66343;44.588;33.450;2023-07-24T06:38:41;24.87;52.09
76855;DHT22;66343;44.588;33.450;2023-07-24T06:41:14;24.89;50.94
76855;DHT22;66343;44.588;33.450;2023-07-24T06:43:46;24.89;51.04
76855;DHT22;66343;44.588;33.450;2023-07-24T06:46:15;24.91;50.74
76855;DHT22;66343;44.588;33.450;2023-07-24T06:48:47;24.95;49.97
76855;DHT22;66343;44.588;33.450;2023-07-24T06:51:16;24.99;50.27
76855;DHT22;66343;44.588;33.450;2023-07-24T06:53:50;25.00;50.95
76855;DHT22;66343;44.588;33.450;2023-07-24T06:56:24;24.97;50.85
76855;DHT22;66343;44.588;33.450;2023-07-24T06:58:55;25.02;52.08
76855;DHT22;66343;44.588;33.450;2023-07-24T07:01:25;25.01;51.58
76855;DHT22;66343;44.588;33.450;2023-07-24T07:03:55;25.03;52.21
76855;DHT22;66343;44.588;33.450;2023-07-24T07:06:24;25.04;52.33
76855;DHT22;66343;44.588;33.450;2023-07-24T07:09:02;25.06;51.95
76855;DHT22;66343;44.588;33.450;2023-07-24T07:11:36;25.06;51.48
76855;DHT22;66343;44.588;33.450;2023-07-24T07:14:10;25.03;52.19
76855;DHT22;66343;44.588;33.450;2023-07-24T07:16:42;25.05;51.85
76855;DHT22;66343;44.588;33.450;2023-07-24T07:19:18;25.09;50.92
76855;DHT22;66343;44.588;33.450;2023-07-24T07:21:49;25.09;51.06
76855;DHT22;66343;44.588;33.450;2023-07-24T07:24:22;25.13;51.53
76855;DHT22;66343;44.588;33.450;2023-07-24T07:26:54;25.16;51.27
76855;DHT22;66343;44.588;33.450;2023-07-24T07:29:23;25.17;51.88
76855;DHT22;66343;44.588;33.450;2023-07-24T07:31:53;25.18;51.98
76855;DHT22;66343;44.588;33.450;2023-07-24T07:34:22;25.17;52.42
76855;DHT22;66343;44.588;33.450;2023-07-24T07:36:54;25.19;50.91
76855;DHT22;66343;44.588;33.450;2023-07-24T07:39:26;25.21;51.95
76855;DHT22;66343;44.588;33.450;2023-07-24T07:41:57;25.25;52.04
76855;DHT22;66343;44.588;33.450;2023-07-24T07:44:46;25.25;51.62
76855;DHT22;66343;44.588;33.450;2023-07-24T07:47:17;25.27;52.27
76855;DHT22;66343;44.588;33.450;2023-07-24T07:49:51;25.21;51.89
76855;DHT22;66343;44.588;33.450;2023-07-24T07:52:26;25.22;52.50
76855;DHT22;66343;44.588;33.450;2023-07-24T07:54:56;25.23;53.23
76855;DHT22;66343;44.588;33.450;2023-07-24T07:57:27;25.24;52.43
76855;DHT22;66343;44.588;33.450;2023-07-24T08:00:01;25.25;52.35
76855;DHT22;66343;44.588;33.450;2023-07-24T08:02:35;25.33;50.78
76855;DHT22;66343;44.588;33.450;2023-07-24T08:05:10;25.35;50.79
76855;DHT22;66343;44.588;33.450;2023-07-24T08:07:50;25.42;51.62
76855;DHT22;66343;44.588;33.450;2023-07-24T08:10:25;25.38;52.34
76855;DHT22;66343;44.588;33.450;2023-07-24T08:12:59;25.37;52.60
76855;DHT22;66343;44.588;33.450;2023-07-24T08:15:42;25.42;52.87
76855;DHT22;66343;44.588;33.450;2023-07-24T08:18:14;25.45;50.82
76855;DHT22;66343;44.588;33.450;2023-07-24T08:20:47;25.46;51.26
76855;DHT22;66343;44.588;33.450;2023-07-24T08:23:16;25.48;51.64
76855;DHT22;66343;44.588;33.450;2023-07-24T08:25:55;25.54;51.85
76855;DHT22;66343;44.588;33.450;2023-07-24T08:28:24;25.58;51.22
76855;DHT22;66343;44.588;33.450;2023-07-24T08:30:58;25.58;51.25
76855;DHT22;66343;44.588;33.450;2023-07-24T08:33:30;25.60;51.86
76855;DHT22;66343;44.588;33.450;2023-07-24T08:36:06;25.61;52.26
76855;DHT22;66343;44.588;33.450;2023-07-24T08:38:39;25.60;51.57
76855;DHT22;66343;44.588;33.450;2023-07-24T08:41:12;25.58;49.46
76855;DHT22;66343;44.588;33.450;2023-07-24T08:43:42;25.58;50.79
76855;DHT22;66343;44.588;33.450;2023-07-24T08:46:13;25.57;51.07
76855;DHT22;66343;44.588;33.450;2023-07-24T08:48:48;25.58;52.19
76855;DHT22;66343;44.588;33.450;2023-07-24T08:51:27;25.60;51.71
76855;DHT22;66343;44.588;33.450;2023-07-24T08:54:01;25.66;50.34
76855;DHT22;66343;44.588;33.450;2023-07-24T08:56:36;25.72;50.43
76855;DHT22;66343;44.588;33.450;2023-07-24T08:59:08;25.76;49.60
76855;DHT22;66343;44.588;33.450;2023-07-24T09:01:41;25.80;49.18
76855;DHT22;66343;44.588;33.450;2023-07-24T09:04:13;25.81;48.72
76855;DHT22;66343;44.588;33.450;2023-07-24T09:06:45;25.92;49.96
76855;DHT22;66343;44.588;33.450;2023-07-24T09:09:15;25.90;50.18
76855;DHT22;66343;44.588;33.450;2023-07-24T09:11:52;25.76;50.47
76855;DHT22;66343;44.588;33.450;2023-07-24T09:14:31;25.77;51.88
76855;DHT22;66343;44.588;33.450;2023-07-24T09:17:12;25.88;50.72
76855;DHT22;66343;44.588;33.450;2023-07-24T09:19:45;25.90;50.69
76855;DHT22;66343;44.588;33.450;2023-07-24T09:22:18;25.99;50.68
76855;DHT22;66343;44.588;33.450;2023-07-24T09:24:57;25.99;50.22
76855;DHT22;66343;44.588;33.450;2023-07-24T09:27:28;26.01;50.33
76855;DHT22;66343;44.588;33.450;2023-07-24T09:30:14;26.03;51.77
76855;DHT22;66343;44.588;33.450;2023-07-24T09:32:57;25.87;51.66
76855;DHT22;66343;44.588;33.450;2023-07-24T09:35:27;25.81;53.98
76855;DHT22;66343;44.588;33.450;2023-07-24T09:38:08;25.86;54.64
76855;DHT22;66343;44.588;33.450;2023-07-24T09:40:44;25.90;53.94
76855;DHT22;66343;44.588;33.450;2023-07-24T09:43:22;25.92;52.94
76855;DHT22;66343;44.588;33.450;2023-07-24T09:46:08;25.98;54.58
76855;DHT22;66343;44.588;33.450;2023-07-24T09:48:39;25.80;54.95
76855;DHT22;66343;44.588;33.450;2023-07-24T09:51:32;25.74;55.53
76855;DHT22;66343;44.588;33.450;2023-07-24T09:56:54;25.68;55.60
76855;DHT22;66343;44.588;33.450;2023-07-24T09:59:50;25.59;54.68
76855;DHT22;66343;44.588;33.450;2023-07-24T10:02:21;25.54;55.42
76855;DHT22;66343;44.588;33.450;2023-07-24T10:05:01;25.57;51.55
76855;DHT22;66343;44.588;33.450;2023-07-24T10:07:36;25.67;51.92
76855;DHT22;66343;44.588;33.450;2023-07-24T10:10:07;25.90;52.36
76855;DHT22;66343;44.588;33.450;2023-07-24T10:12:37;26.05;52.70
76855;DHT22;66343;44.588;33.450;2023-07-24T10:15:10;26.04;52.20
76855;DHT22;66343;44.588;33.450;2023-07-24T10:17:41;26.01;51.90
76855;DHT22;66343;44.588;33.450;2023-07-24T10:20:12;25.98;51.71
76855;DHT22;66343;44.588;33.450;2023-07-24T10:22:46;25.93;50.88
76855;DHT22;66343;44.588;33.450;2023-07-24T10:25:28;25.82;51.33
76855;DHT22;66343;44.588;33.450;2023-07-24T10:28:04;25.79;48.89
76855;DHT22;66343;44.588;33.450;2023-07-24T10:30:45;25.71;54.91
76855;DHT22;66343;44.588;33.450;2023-07-24T10:33:30;25.79;52.79
76855;DHT22;66343;44.588;33.450;2023-07-24T10:36:10;25.77;49.86
76855;DHT22;66343;44.588;33.450;2023-07-24T10:38:43;25.92;50.19
76855;DHT22;66343;44.588;33.450;2023-07-24T10:41:18;25.94;51.94
76855;DHT22;66343;44.588;33.450;2023-07-24T10:43:59;25.92;48.82
76855;DHT22;66343;44.588;33.450;2023-07-24T10:46:37;25.96;47.92
76855;DHT22;66343;44.588;33.450;2023-07-24T10:49:08;25.99;51.61
76855;DHT22;66343;44.588;33.450;2023-07-24T10:51:43;26.10;52.64
76855;DHT22;66343;44.588;33.450;2023-07-24T10:54:21;26.20;51.60
76855;DHT22;66343;44.588;33.450;2023-07-24T10:57:00;26.30;52.60
76855;DHT22;66343;44.588;33.450;2023-07-24T10:59:39;26.31;55.09
76855;DHT22;66343;44.588;33.450;2023-07-24T11:02:13;26.23;55.59
76855;DHT22;66343;44.588;33.450;2023-07-24T11:04:44;26.34;54.46
76855;DHT22;66343;44.588;33.450;2023-07-24T11:07:18;26.36;55.97
76855;DHT22;66343;44.588;33.450;2023-07-24T11:09:49;26.38;51.79
76855;DHT22;66343;44.588;33.450;2023-07-24T11:12:20;26.35;52.72
76855;DHT22;66343;44.588;33.450;2023-07-24T11:14:53;26.26;53.92
76855;DHT22;66343;44.588;33.450;2023-07-24T11:17:36;26.36;55.22
76855;DHT22;66343;44.588;33.450;2023-07-24T11:20:15;26.33;57.19
76855;DHT22;66343;44.588;33.450;2023-07-24T11:22:47;26.36;56.63
76855;DHT22;66343;44.588;33.450;2023-07-24T11:25:24;26.39;56.52
76855;DHT22;66343;44.588;33.450;2023-07-24T11:27:58;26.50;57.11
76855;DHT22;66343;44.588;33.450;2023-07-24T11:30:29;26.57;57.89
76855;DHT22;66343;44.588;33.450;2023-07-24T11:33:06;26.63;56.19
76855;DHT22;66343;44.588;33.450;2023-07-24T11:35:41;26.46;57.53
76855;DHT22;66343;44.588;33.450;2023-07-24T11:38:14;26.51;55.18
76855;DHT22;66343;44.588;33.450;2023-07-24T11:40:49;26.61;56.02
76855;DHT22;66343;44.588;33.450;2023-07-24T11:43:21;26.77;53.46
76855;DHT22;66343;44.588;33.450;2023-07-24T11:45:51;26.80;52.94
76855;DHT22;66343;44.588;33.450;2023-07-24T11:48:27;26.87;52.70
76855;DHT22;66343;44.588;33.450;2023-07-24T11:51:01;26.90;47.89
76855;DHT22;66343;44.588;33.450;2023-07-24T11:53:37;26.97;50.75
76855;DHT22;66343;44.588;33.450;2023-07-24T11:56:14;27.05;51.37
76855;DHT22;66343;44.588;33.450;2023-07-24T11:58:47;27.13;53.65
76855;DHT22;66343;44.588;33.450;2023-07-24T12:01:16;27.27;52.19
76855;DHT22;66343;44.588;33.450;2023-07-24T12:03:50;27.35;52.14
76855;DHT22;66343;44.588;33.450;2023-07-24T12:06:29;27.42;52.03
76855;DHT22;66343;44.588;33.450;2023-07-24T12:09:07;27.50;51.15
76855;DHT22;66343;44.588;33.450;2023-07-24T12:11:44;27.57;50.88
76855;DHT22;66343;44.588;33.450;2023-07-24T12:14:21;27.66;50.34
76855;DHT22;66343;44.588;33.450;2023-07-24T12:17:00;27.75;51.20
76855;DHT22;66343;44.588;33.450;2023-07-24T12:19:33;27.78;51.80
76855;DHT22;66343;44.588;33.450;2023-07-24T12:22:08;27.93;52.66
76855;DHT22;66343;44.588;33.450;2023-07-24T12:24:42;27.91;51.02
76855;DHT22;66343;44.588;33.450;2023-07-24T12:27:18;27.87;51.17
76855;DHT22;66343;44.588;33.450;2023-07-24T12:29:55;27.85;51.94
76855;DHT22;66343;44.588;33.450;2023-07-24T12:32:30;27.80;50.86
76855;DHT22;66343;44.588;33.450;2023-07-24T12:35:01;27.72;51.26
76855;DHT22;66343;44.588;33.450;2023-07-24T12:37:33;27.91;50.89
76855;DHT22;66343;44.588;33.450;2023-07-24T12:40:08;27.97;51.73
76855;DHT22;66343;44.588;33.450;2023-07-24T12:42:44;27.91;52.84
76855;DHT22;66343;44.588;33.450;2023-07-24T12:45:15;28.09;51.88
76855;DHT22;66343;44.588;33.450;2023-07-24T12:47:47;28.01;51.26
76855;DHT22;66343;44.588;33.450;2023-07-24T12:50:21;28.00;52.44
76855;DHT22;66343;44.588;33.450;2023-07-24T12:52:52;28.18;50.51
76855;DHT22;66343;44.588;33.450;2023-07-24T12:55:23;28.13;51.26
76855;DHT22;66343;44.588;33.450;2023-07-24T12:57:55;28.24;50.46
76855;DHT22;66343;44.588;33.450;2023-07-24T13:00:34;28.29;50.78
76855;DHT22;66343;44.588;33.450;2023-07-24T13:03:07;28.39;50.12
76855;DHT22;66343;44.588;33.450;2023-07-24T13:05:37;28.48;50.50
76855;DHT22;66343;44.588;33.450;2023-07-24T13:08:09;28.55;50.81
76855;DHT22;66343;44.588;33.450;2023-07-24T13:10:41;28.85;50.52
76855;DHT22;66343;44.588;33.450;2023-07-24T13:13:11;29.02;48.81
76855;DHT22;66343;44.588;33.450;2023-07-24T13:15:44;29.00;47.16
76855;DHT22;66343;44.588;33.450;2023-07-24T13:18:19;28.84;47.47
76855;DHT22;66343;44.588;33.450;2023-07-24T13:21:01;28.77;48.28
76855;DHT22;66343;44.588;33.450;2023-07-24T13:23:39;28.68;48.94
76855;DHT22;66343;44.588;33.450;2023-07-24T13:26:12;28.86;48.70
76855;DHT22;66343;44.588;33.450;2023-07-24T13:28:45;28.90;49.56
76855;DHT22;66343;44.588;33.450;2023-07-24T13:31:20;28.86;48.99
76855;DHT22;66343;44.588;33.450;2023-07-24T13:33:53;28.83;50.27
76855;DHT22;66343;44.588;33.450;2023-07-24T13:36:24;28.94;48.67
76855;DHT22;66343;44.588;33.450;2023-07-24T13:38:59;29.02;49.05
76855;DHT22;66343;44.588;33.450;2023-07-24T13:41:33;28.89;48.65
76855;DHT22;66343;44.588;33.450;2023-07-24T13:44:02;29.00;49.47
76855;DHT22;66343;44.588;33.450;2023-07-24T13:46:39;29.01;49.42
76855;DHT22;66343;44.588;33.450;2023-07-24T13:49:13;29.07;49.53
76855;DHT22;66343;44.588;33.450;2023-07-24T13:51:46;29.04;50.23
76855;DHT22;66343;44.588;33.450;2023-07-24T13:54:19;29.12;50.40
76855;DHT22;66343;44.588;33.450;2023-07-24T13:56:48;29.16;51.05
76855;DHT22;66343;44.588;33.450;2023-07-24T13:59:19;29.03;51.97
76855;DHT22;66343;44.588;33.450;2023-07-24T14:01:54;29.26;51.79
76855;DHT22;66343;44.588;33.450;2023-07-24T14:04:26;29.37;51.09
76855;DHT22;66343;44.588;33.450;2023-07-24T14:07:00;29.21;51.98
76855;DHT22;66343;44.588;33.450;2023-07-24T14:09:29;29.47;52.54
76855;DHT22;66343;44.588;33.450;2023-07-24T14:12:05;29.47;51.32
76855;DHT22;66343;44.588;33.450;2023-07-24T14:14:35;29.26;52.52
76855;DHT22;66343;44.588;33.450;2023-07-24T14:17:04;29.37;52.50
76855;DHT22;66343;44.588;33.450;2023-07-24T14:19:35;29.09;53.23
76855;DHT22;66343;44.588;33.450;2023-07-24T14:22:05;29.00;53.75
76855;DHT22;66343;44.588;33.450;2023-07-24T14:24:36;28.90;54.29
76855;DHT22;66343;44.588;33.450;2023-07-24T14:27:07;29.14;53.20
76855;DHT22;66343;44.588;33.450;2023-07-24T14:29:37;29.08;52.98
76855;DHT22;66343;44.588;33.450;2023-07-24T14:32:10;29.05;53.38
76855;DHT22;66343;44.588;33.450;2023-07-24T14:34:49;29.01;53.80
76855;DHT22;66343;44.588;33.450;2023-07-24T14:37:21;29.13;53.24
76855;DHT22;66343;44.588;33.450;2023-07-24T14:39:51;29.12;53.63
76855;DHT22;66343;44.588;33.450;2023-07-24T14:42:21;29.38;52.85
76855;DHT22;66343;44.588;33.450;2023-07-24T14:44:53;29.14;53.83
76855;DHT22;66343;44.588;33.450;2023-07-24T14:47:24;29.12;54.75
76855;DHT22;66343;44.588;33.450;2023-07-24T14:49:58;29.09;54.46
76855;DHT22;66343;44.588;33.450;2023-07-24T14:52:30;28.74;54.97
76855;DHT22;66343;44.588;33.450;2023-07-24T14:54:59;28.75;55.13
76855;DHT22;66343;44.588;33.450;2023-07-24T14:57:33;28.65;56.01
76855;DHT22;66343;44.588;33.450;2023-07-24T15:00:05;28.97;55.40
76855;DHT22;66343;44.588;33.450;2023-07-24T15:02:37;29.22;54.97
76855;DHT22;66343;44.588;33.450;2023-07-24T15:05:07;29.37;54.26
76855;DHT22;66343;44.588;33.450;2023-07-24T15:07:39;29.29;54.65
76855;DHT22;66343;44.588;33.450;2023-07-24T15:10:08;29.30;54.41
76855;DHT22;66343;44.588;33.450;2023-07-24T15:12:45;29.09;55.31
76855;DHT22;66343;44.588;33.450;2023-07-24T15:15:17;28.90;56.70
76855;DHT22;66343;44.588;33.450;2023-07-24T15:17:49;28.72;57.48
76855;DHT22;66343;44.588;33.450;2023-07-24T15:20:21;28.95;56.75
76855;DHT22;66343;44.588;33.450;2023-07-24T15:22:51;29.15;55.96
76855;DHT22;66343;44.588;33.450;2023-07-24T15:25:28;29.29;55.49
76855;DHT22;66343;44.588;33.450;2023-07-24T15:28:03;29.15;55.30
76855;DHT22;66343;44.588;33.450;2023-07-24T15:30:33;29.13;54.60
76855;DHT22;66343;44.588;33.450;2023-07-24T15:33:03;28.95;53.05
76855;DHT22;66343;44.588;33.450;2023-07-24T15:35:38;29.04;53.38
76855;DHT22;66343;44.588;33.450;2023-07-24T15:38:08;28.99;53.52
76855;DHT22;66343;44.588;33.450;2023-07-24T15:40:41;29.09;54.10
76855;DHT22;66343;44.588;33.450;2023-07-24T15:43:10;28.86;55.07
76855;DHT22;66343;44.588;33.450;2023-07-24T15:45:42;29.02;54.62
76855;DHT22;66343;44.588;33.450;2023-07-24T15:48:12;29.16;54.66
76855;DHT22;66343;44.588;33.450;2023-07-24T15:50:53;29.17;54.10
76855;DHT22;66343;44.588;33.450;2023-07-24T15:53:24;28.82;55.11
76855;DHT22;66343;44.588;33.450;2023-07-24T15:55:59;28.88;55.03
76855;DHT22;66343;44.588;33.450;2023-07-24T15:58:29;28.88;54.91